createdAt,value
2023-05-08T00:00:06.494Z,68.70
2023-05-08T00:02:35.823Z,68.70
2023-05-08T00:05:03.890Z,68.70
2023-05-08T00:07:31.949Z,68.80
2023-05-08T00:09:59.878Z,69.00
2023-05-08T00:12:27.807Z,69.00
2023-05-08T00:14:55.716Z,68.80
2023-05-08T00:17:23.662Z,68.70
2023-05-08T00:19:53.030Z,69.60
2023-05-08T00:22:23.597Z,69.20
2023-05-08T00:24:51.508Z,69.10
2023-05-08T00:27:19.440Z,68.80
2023-05-08T00:29:47.352Z,68.30
2023-05-08T00:32:15.273Z,68.00
2023-05-08T00:34:43.291Z,68.00
2023-05-08T00:37:12.520Z,67.90
2023-05-08T00:39:40.421Z,67.90
2023-05-08T00:42:08.307Z,68.10
2023-05-08T00:44:36.246Z,68.50
2023-05-08T00:47:04.610Z,68.70
2023-05-08T00:49:35.655Z,68.70
2023-05-08T00:52:03.937Z,68.70
2023-05-08T00:54:33.195Z,68.60
2023-05-08T00:57:01.127Z,68.90
2023-05-08T00:59:28.983Z,69.00
2023-05-08T01:01:56.881Z,68.90
2023-05-08T01:04:26.568Z,68.80
2023-05-08T01:06:54.554Z,68.80
2023-05-08T01:09:22.471Z,69.80
2023-05-08T01:11:56.317Z,69.20
2023-05-08T01:14:28.172Z,69.10
2023-05-08T01:16:59.619Z,68.90
2023-05-08T01:19:49.774Z,68.90
2023-05-08T01:22:36.613Z,69.30
2023-05-08T01:25:33.916Z,69.20
2023-05-08T01:28:25.143Z,68.80
2023-05-08T01:31:09.350Z,68.40
2023-05-08T01:33:43.967Z,67.90
2023-05-08T01:36:18.944Z,67.70
2023-05-08T01:38:52.525Z,67.70
2023-05-08T01:41:27.064Z,67.90
2023-05-08T01:43:58.030Z,68.00
2023-05-08T01:46:27.786Z,68.30
2023-05-08T01:49:07.415Z,68.50
2023-05-08T01:51:38.688Z,68.30
2023-05-08T01:54:10.329Z,68.50
2023-05-08T01:56:38.923Z,68.70
2023-05-08T01:59:06.805Z,68.70
2023-05-08T02:01:34.736Z,68.70
2023-05-08T02:04:04.095Z,68.70
2023-05-08T02:06:32.330Z,68.70
2023-05-08T02:09:00.260Z,68.80
2023-05-08T02:11:28.393Z,69.10
2023-05-08T02:13:56.268Z,68.90
2023-05-08T02:16:24.235Z,68.70
2023-05-08T02:18:53.178Z,68.20
2023-05-08T02:21:22.516Z,68.10
2023-05-08T02:23:54.901Z,67.90
2023-05-08T02:26:22.815Z,67.90
2023-05-08T02:28:50.926Z,68.00
2023-05-08T02:31:19.275Z,68.20
2023-05-08T02:33:47.155Z,68.50
2023-05-08T02:36:17.675Z,68.60
2023-05-08T02:38:48.276Z,68.50
2023-05-08T02:41:16.491Z,68.50
2023-05-08T02:43:44.665Z,68.70
2023-05-08T02:46:15.576Z,68.80
2023-05-08T02:48:48.970Z,68.80
2023-05-08T02:51:21.141Z,68.70
2023-05-08T02:53:56.468Z,68.70
2023-05-08T02:56:31.988Z,68.70
2023-05-08T02:59:02.250Z,69.10
2023-05-08T03:01:32.674Z,69.00
2023-05-08T03:04:03.836Z,68.70
2023-05-08T03:06:34.909Z,68.20
2023-05-08T03:09:04.968Z,67.90
2023-05-08T03:11:39.794Z,68.00
2023-05-08T03:14:09.852Z,67.90
2023-05-08T03:16:37.806Z,68.00
2023-05-08T03:19:12.464Z,68.20
2023-05-08T03:21:40.405Z,68.60
2023-05-08T03:24:09.906Z,68.60
2023-05-08T03:26:38.444Z,68.60
2023-05-08T03:29:06.393Z,68.50
2023-05-08T03:31:36.274Z,68.70
2023-05-08T03:34:04.533Z,68.80
2023-05-08T03:36:32.736Z,68.80
2023-05-08T03:39:01.198Z,68.80
2023-05-08T03:41:30.718Z,68.60
2023-05-08T03:43:58.614Z,68.80
2023-05-08T03:46:26.806Z,69.00
2023-05-08T03:48:54.812Z,68.90
2023-05-08T03:51:22.929Z,68.70
2023-05-08T03:53:52.194Z,68.20
2023-05-08T03:56:24.688Z,67.90
2023-05-08T03:59:00.441Z,67.80
2023-05-08T04:01:33.211Z,67.90
2023-05-08T04:04:04.570Z,67.90
2023-05-08T04:06:45.771Z,68.10
2023-05-08T04:09:21.031Z,68.40
2023-05-08T04:11:53.555Z,68.40
2023-05-08T04:14:25.493Z,68.50
2023-05-08T04:16:54.629Z,68.50
2023-05-08T04:19:25.278Z,68.70
2023-05-08T04:21:55.722Z,68.80
2023-05-08T04:24:24.118Z,68.70
2023-05-08T04:26:52.020Z,68.70
2023-05-08T04:29:20.490Z,68.60
2023-05-08T04:31:50.882Z,68.80
2023-05-08T04:34:19.376Z,69.00
2023-05-08T04:36:48.492Z,68.90
2023-05-08T04:39:16.464Z,68.70
2023-05-08T04:41:44.490Z,68.50
2023-05-08T04:44:13.412Z,68.40
2023-05-08T04:46:41.516Z,68.50
2023-05-08T04:49:11.898Z,68.50
2023-05-08T04:51:39.860Z,68.40
2023-05-08T04:54:07.864Z,69.10
2023-05-08T04:56:36.109Z,68.40
2023-05-08T04:59:04.269Z,68.60
2023-05-08T05:01:35.059Z,68.80
2023-05-08T05:04:03.065Z,68.80
2023-05-08T05:06:35.917Z,68.60
2023-05-08T05:09:04.778Z,68.50
2023-05-08T05:11:32.680Z,68.70
2023-05-08T05:14:00.869Z,68.80
2023-05-08T05:16:28.759Z,68.70
2023-05-08T05:18:56.968Z,68.70
2023-05-08T05:21:25.169Z,68.60
2023-05-08T05:23:54.492Z,68.70
2023-05-08T05:26:23.252Z,68.90
2023-05-08T05:28:51.549Z,68.90
2023-05-08T05:31:19.992Z,68.80
2023-05-08T05:33:48.341Z,68.30
2023-05-08T05:36:16.833Z,68.00
2023-05-08T05:38:44.833Z,67.90
2023-05-08T05:41:14.107Z,68.00
2023-05-08T05:43:42.063Z,68.10
2023-05-08T05:46:10.471Z,68.30
2023-05-08T05:48:40.584Z,68.70
2023-05-08T05:51:10.602Z,68.80
2023-05-08T05:53:38.586Z,68.80
2023-05-08T05:56:07.729Z,68.80
2023-05-08T05:58:37.195Z,68.70
2023-05-08T06:01:05.559Z,69.00
2023-05-08T06:03:33.541Z,69.00
2023-05-08T06:06:01.509Z,68.90
2023-05-08T06:08:29.425Z,68.80
2023-05-08T06:10:57.467Z,69.00
2023-05-08T06:13:25.446Z,69.10
2023-05-08T06:15:57.380Z,69.10
2023-05-08T06:18:26.008Z,69.10
2023-05-08T06:20:57.741Z,68.80
2023-05-08T06:23:28.773Z,68.40
2023-05-08T06:25:56.736Z,68.10
2023-05-08T06:28:26.025Z,67.90
2023-05-08T06:30:54.102Z,68.00
2023-05-08T06:33:26.149Z,68.10
2023-05-08T06:35:54.739Z,68.20
2023-05-08T06:38:22.660Z,68.60
2023-05-08T06:40:50.736Z,68.70
2023-05-08T06:43:18.660Z,68.70
2023-05-08T06:45:46.576Z,68.80
2023-05-08T06:48:14.582Z,68.70
2023-05-08T06:50:43.966Z,69.00
2023-05-08T06:53:11.924Z,69.00
2023-05-08T06:55:43.595Z,69.00
2023-05-08T06:58:11.523Z,69.00
2023-05-08T07:00:39.422Z,69.00
2023-05-08T07:03:07.352Z,69.20
2023-05-08T07:05:38.137Z,69.30
2023-05-08T07:08:07.523Z,69.00
2023-05-08T07:10:35.541Z,68.70
2023-05-08T07:13:03.612Z,68.30
2023-05-08T07:15:32.595Z,68.30
2023-05-08T07:18:00.570Z,68.20
2023-05-08T07:20:28.585Z,68.20
2023-05-08T07:22:56.559Z,68.50
2023-05-08T07:25:25.821Z,68.80
2023-05-08T07:27:55.527Z,68.80
2023-05-08T07:30:23.607Z,68.80
2023-05-08T07:32:51.574Z,68.80
2023-05-08T07:35:19.678Z,68.90
2023-05-08T07:37:49.884Z,69.10
2023-05-08T07:40:17.901Z,69.10
2023-05-08T07:42:47.117Z,69.00
2023-05-08T07:45:15.440Z,69.00
2023-05-08T07:47:50.309Z,69.10
2023-05-08T07:50:18.314Z,69.20
2023-05-08T07:52:47.982Z,69.40
2023-05-08T07:55:18.007Z,69.20
2023-05-08T07:57:47.256Z,68.90
2023-05-08T08:00:16.153Z,68.50
2023-05-08T08:02:46.965Z,68.30
2023-05-08T08:05:15.217Z,68.20
2023-05-08T08:07:43.623Z,68.20
2023-05-08T08:10:11.671Z,68.30
2023-05-08T08:12:39.723Z,68.60
2023-05-08T08:15:10.031Z,68.80
2023-05-08T08:17:38.106Z,68.80
2023-05-08T08:20:07.230Z,68.80
2023-05-08T08:22:36.504Z,68.80
2023-05-08T08:25:04.583Z,69.00
2023-05-08T08:27:32.553Z,69.20
2023-05-08T08:30:12.687Z,69.10
2023-05-08T08:32:45.993Z,68.80
2023-05-08T08:35:14.526Z,68.80
2023-05-08T08:37:42.688Z,68.60
2023-05-08T08:40:13.780Z,68.90
2023-05-08T08:42:41.861Z,68.70
2023-05-08T08:45:10.253Z,68.90
2023-05-08T08:47:39.704Z,68.70
2023-05-08T08:50:11.979Z,68.80
2023-05-08T08:52:44.838Z,69.10
2023-05-08T08:55:13.560Z,69.10
2023-05-08T08:57:44.468Z,69.00
2023-05-08T09:00:13.346Z,68.90
2023-05-08T09:02:41.414Z,69.00
2023-05-08T09:05:11.422Z,69.30
2023-05-08T09:07:41.013Z,69.50
2023-05-08T09:10:15.164Z,69.20
2023-05-08T09:12:44.938Z,69.10
2023-05-08T09:15:13.073Z,69.10
2023-05-08T09:17:41.210Z,69.50
2023-05-08T09:20:11.996Z,69.50
2023-05-08T09:22:40.137Z,69.30
2023-05-08T09:25:08.741Z,69.00
2023-05-08T09:27:36.845Z,68.50
2023-05-08T09:30:05.903Z,68.30
2023-05-08T09:32:34.634Z,68.30
2023-05-08T09:35:03.162Z,68.10
2023-05-08T09:37:32.579Z,68.30
2023-05-08T09:40:19.134Z,68.60
2023-05-08T09:42:47.074Z,68.80
2023-05-08T09:45:27.550Z,68.80
2023-05-08T09:47:58.594Z,68.80
2023-05-08T09:50:27.867Z,68.80
2023-05-08T09:52:57.501Z,69.10
2023-05-08T09:55:25.449Z,69.10
2023-05-08T09:57:57.580Z,69.10
2023-05-08T10:00:26.254Z,69.10
2023-05-08T10:02:58.238Z,69.10
2023-05-08T10:05:27.513Z,69.40
2023-05-08T10:07:56.779Z,69.50
2023-05-08T10:10:26.645Z,69.30
2023-05-08T10:12:55.036Z,69.20
2023-05-08T10:15:24.441Z,69.20
2023-05-08T10:17:55.199Z,69.40
2023-05-08T10:20:23.334Z,69.70
2023-05-08T10:22:51.272Z,69.50
2023-05-08T10:25:21.501Z,69.20
2023-05-08T10:27:54.864Z,68.90
2023-05-08T10:30:25.639Z,68.50
2023-05-08T10:32:55.354Z,68.50
2023-05-08T10:35:23.607Z,68.40
2023-05-08T10:37:51.502Z,68.40
2023-05-08T10:40:21.323Z,68.80
2023-05-08T10:42:49.256Z,68.80
2023-05-08T10:45:17.120Z,69.50
2023-05-08T10:47:49.909Z,68.80
2023-05-08T10:50:24.275Z,69.00
2023-05-08T10:52:57.970Z,69.10
2023-05-08T10:55:30.830Z,69.20
2023-05-08T10:58:12.096Z,69.10
2023-05-08T11:01:13.657Z,69.10
2023-05-08T11:03:42.987Z,69.20
2023-05-08T11:06:11.177Z,69.40
2023-05-08T11:08:50.187Z,69.50
2023-05-08T11:11:33.499Z,69.20
2023-05-08T11:14:12.313Z,69.30
2023-05-08T11:17:08.544Z,69.20
2023-05-08T11:19:37.205Z,69.50
2023-05-08T11:22:32.928Z,69.50
2023-05-08T11:25:02.877Z,69.30
2023-05-08T11:27:39.420Z,68.90
2023-05-08T11:30:23.731Z,68.50
2023-05-08T11:33:16.417Z,68.30
2023-05-08T11:35:46.279Z,68.30
2023-05-08T11:38:18.529Z,68.40
2023-05-08T11:40:52.758Z,68.80
2023-05-08T11:43:32.603Z,69.00
2023-05-08T11:46:01.685Z,68.90
2023-05-08T11:48:29.541Z,69.00
2023-05-08T11:50:57.518Z,69.00
2023-05-08T11:53:25.514Z,69.20
2023-05-08T11:55:53.741Z,69.40
2023-05-08T11:58:22.958Z,69.40
2023-05-08T12:00:51.076Z,69.00
2023-05-08T12:03:19.684Z,69.00
2023-05-08T12:05:48.419Z,68.80
2023-05-08T12:08:16.980Z,69.20
2023-05-08T12:10:51.496Z,69.10
2023-05-08T12:13:19.812Z,69.10
2023-05-08T12:15:49.448Z,69.00
2023-05-08T12:18:17.759Z,69.20
2023-05-08T12:20:47.685Z,69.40
2023-05-08T12:23:15.611Z,69.40
2023-05-08T12:25:43.545Z,69.30
2023-05-08T12:28:11.584Z,69.40
2023-05-08T12:30:39.486Z,69.50
2023-05-08T12:33:08.868Z,69.80
2023-05-08T12:35:37.466Z,69.70
2023-05-08T12:38:06.754Z,69.40
2023-05-08T12:40:36.062Z,69.20
2023-05-08T12:43:04.586Z,69.00
2023-05-08T12:45:34.194Z,69.00
2023-05-08T12:48:03.131Z,69.30
2023-05-08T12:50:35.453Z,69.20
2023-05-08T12:53:04.537Z,69.10
2023-05-08T12:55:33.348Z,69.20
2023-05-08T12:58:02.565Z,69.30
2023-05-08T13:00:38.003Z,69.50
2023-05-08T13:03:09.129Z,69.40
2023-05-08T13:05:38.971Z,69.40
2023-05-08T13:08:09.369Z,69.50
2023-05-08T13:10:50.201Z,69.60
2023-05-08T13:13:18.930Z,69.70
2023-05-08T13:15:47.067Z,69.70
2023-05-08T13:18:15.065Z,69.50
2023-05-08T13:20:46.123Z,69.60
2023-05-08T13:23:14.160Z,69.80
2023-05-08T13:25:42.253Z,69.90
2023-05-08T13:28:10.717Z,69.80
2023-05-08T13:30:38.748Z,69.40
2023-05-08T13:33:06.672Z,69.00
2023-05-08T13:35:34.688Z,68.90
2023-05-08T13:38:03.949Z,68.60
2023-05-08T13:40:31.947Z,68.70
2023-05-08T13:42:59.890Z,68.70
2023-05-08T13:45:27.963Z,68.90
2023-05-08T13:47:55.955Z,69.30
2023-05-08T13:50:23.947Z,69.20
2023-05-08T13:52:54.531Z,69.30
2023-05-08T13:55:24.506Z,69.30
2023-05-08T13:57:52.519Z,69.50
2023-05-08T14:00:21.088Z,69.70
2023-05-08T14:02:51.512Z,69.70
2023-05-08T14:05:21.111Z,69.60
2023-05-08T14:07:51.151Z,69.60
2023-05-08T14:10:19.128Z,69.70
2023-05-08T14:12:48.367Z,69.90
2023-05-08T14:15:16.471Z,69.80
2023-05-08T14:17:48.255Z,69.70
2023-05-08T14:20:19.448Z,69.40
2023-05-08T14:22:47.399Z,69.00
2023-05-08T14:25:15.761Z,68.70
2023-05-08T14:27:44.878Z,68.70
2023-05-08T14:30:15.944Z,68.70
2023-05-08T14:32:43.906Z,68.90
2023-05-08T14:35:11.893Z,69.20
2023-05-08T14:37:39.873Z,69.30
2023-05-08T14:40:09.132Z,69.30
2023-05-08T14:42:39.896Z,69.30
2023-05-08T14:45:09.151Z,69.40
2023-05-08T14:47:38.782Z,69.60
2023-05-08T14:50:07.612Z,69.70
2023-05-08T14:52:35.767Z,69.70
2023-05-08T14:55:04.353Z,69.60
2023-05-08T14:57:32.454Z,69.70
2023-05-08T15:00:00.532Z,69.80
2023-05-08T15:02:28.558Z,69.80
2023-05-08T15:05:01.036Z,69.80
2023-05-08T15:07:28.933Z,69.30
2023-05-08T15:09:56.841Z,68.90
2023-05-08T15:12:24.747Z,68.80
2023-05-08T15:14:52.664Z,68.80
2023-05-08T15:17:20.664Z,68.90
2023-05-08T15:19:51.401Z,68.90
2023-05-08T15:22:22.352Z,69.20
2023-05-08T15:24:50.266Z,69.40
2023-05-08T15:27:21.062Z,69.40
2023-05-08T15:29:49.803Z,69.40
2023-05-08T15:32:17.695Z,69.50
2023-05-08T15:34:45.605Z,70.50
2023-05-08T15:37:13.481Z,70.00
2023-05-08T15:39:43.200Z,69.80
2023-05-08T15:42:11.084Z,69.60
2023-05-08T15:44:53.960Z,69.30
2023-05-08T15:47:23.792Z,69.20
2023-05-08T15:49:51.735Z,69.40
2023-05-08T15:52:19.849Z,69.40
2023-05-08T15:54:50.486Z,69.40
2023-05-08T15:57:18.395Z,69.30
2023-05-08T15:59:46.532Z,69.50
2023-05-08T16:02:14.441Z,69.70
2023-05-08T16:04:47.199Z,69.80
2023-05-08T16:07:15.187Z,69.80
2023-05-08T16:09:43.111Z,69.80
2023-05-08T16:12:12.403Z,69.80
2023-05-08T16:14:40.398Z,70.10
2023-05-08T16:17:08.892Z,70.10
2023-05-08T16:19:38.983Z,70.00
2023-05-08T16:22:06.928Z,69.90
2023-05-08T16:24:34.842Z,69.90
2023-05-08T16:27:02.752Z,70.00
2023-05-08T16:29:32.089Z,70.30
2023-05-08T16:32:00.036Z,70.20
2023-05-08T16:34:27.974Z,69.90
2023-05-08T16:36:55.864Z,69.50
2023-05-08T16:39:23.756Z,69.00
2023-05-08T16:41:51.639Z,69.00
2023-05-08T16:44:19.518Z,68.90
2023-05-08T16:46:48.835Z,69.70
2023-05-08T16:49:18.435Z,69.10
2023-05-08T16:51:46.335Z,69.60
2023-05-08T16:54:14.259Z,69.60
2023-05-08T16:56:42.146Z,69.60
2023-05-08T16:59:10.092Z,69.60
2023-05-08T17:01:38.028Z,69.70
2023-05-08T17:04:07.332Z,69.90
2023-05-08T17:06:35.264Z,70.10
2023-05-08T17:09:03.158Z,70.00
2023-05-08T17:11:31.161Z,69.90
2023-05-08T17:13:59.153Z,69.90
2023-05-08T17:16:27.094Z,70.10
2023-05-08T17:18:55.064Z,70.30
2023-05-08T17:21:24.422Z,70.20
2023-05-08T17:23:52.380Z,69.70
2023-05-08T17:26:21.724Z,69.40
2023-05-08T17:28:49.724Z,69.10
2023-05-08T17:31:17.738Z,69.10
2023-05-08T17:33:45.848Z,69.20
2023-05-08T17:36:13.753Z,69.40
2023-05-08T17:38:46.295Z,69.70
2023-05-08T17:41:14.195Z,69.80
2023-05-08T17:43:43.773Z,69.70
2023-05-08T17:46:11.704Z,69.70
2023-05-08T17:48:39.653Z,69.90
2023-05-08T17:51:07.551Z,70.10
2023-05-08T17:53:35.476Z,70.10
2023-05-08T17:56:04.897Z,70.10
2023-05-08T17:58:32.873Z,70.00
2023-05-08T18:01:00.882Z,70.10
2023-05-08T18:03:28.815Z,70.40
2023-05-08T18:05:56.751Z,70.50
2023-05-08T18:08:24.686Z,70.40
2023-05-08T18:10:52.657Z,70.10
2023-05-08T18:13:22.061Z,69.60
2023-05-08T18:15:50.375Z,69.30
2023-05-08T18:18:18.361Z,69.20
2023-05-08T18:20:46.297Z,69.20
2023-05-08T18:23:14.228Z,69.40
2023-05-08T18:25:42.139Z,69.80
2023-05-08T18:28:10.296Z,70.20
2023-05-08T18:30:40.107Z,70.10
2023-05-08T18:33:08.262Z,70.00
2023-05-08T18:35:36.253Z,70.20
2023-05-08T18:38:04.258Z,70.40
2023-05-08T18:40:32.300Z,70.80
2023-05-08T18:43:00.260Z,70.70
2023-05-08T18:45:28.191Z,70.50
2023-05-08T18:47:57.638Z,70.50
2023-05-08T18:50:25.881Z,70.70
2023-05-08T18:52:53.814Z,71.20
2023-05-08T18:55:21.782Z,71.30
2023-05-08T18:57:49.666Z,71.00
2023-05-08T19:00:18.268Z,70.60
2023-05-08T19:02:46.305Z,70.10
2023-05-08T19:05:15.672Z,69.80
2023-05-08T19:07:43.800Z,69.70
2023-05-08T19:10:12.096Z,69.70
2023-05-08T19:12:40.292Z,70.00
2023-05-08T19:15:09.857Z,70.50
2023-05-08T19:17:37.923Z,70.60
2023-05-08T19:20:07.004Z,70.60
2023-05-08T19:22:36.308Z,70.60
2023-05-08T19:25:04.411Z,70.70
2023-05-08T19:27:32.917Z,71.00
2023-05-08T19:30:00.874Z,71.20
2023-05-08T19:32:28.841Z,71.10
2023-05-08T19:34:57.457Z,71.00
2023-05-08T19:37:25.410Z,71.00
2023-05-08T19:39:54.675Z,71.20
2023-05-08T19:42:22.569Z,71.50
2023-05-08T19:44:50.491Z,71.30
2023-05-08T19:47:18.403Z,70.80
2023-05-08T19:49:46.306Z,70.40
2023-05-08T19:52:14.181Z,70.10
2023-05-08T19:54:43.379Z,70.00
2023-05-08T19:57:12.648Z,69.90
2023-05-08T19:59:40.654Z,70.10
2023-05-08T20:02:08.602Z,70.30
2023-05-08T20:04:48.869Z,70.70
2023-05-08T20:07:24.348Z,70.70
2023-05-08T20:09:52.228Z,70.70
2023-05-08T20:12:21.488Z,70.70
2023-05-08T20:14:49.386Z,70.80
2023-05-08T20:17:17.308Z,71.20
2023-05-08T20:19:45.229Z,71.10
2023-05-08T20:22:13.162Z,71.70
2023-05-08T20:24:41.094Z,71.00
2023-05-08T20:27:08.992Z,70.90
2023-05-08T20:29:38.341Z,71.40
2023-05-08T20:32:07.233Z,71.40
2023-05-08T20:34:35.306Z,71.20
2023-05-08T20:37:03.821Z,70.80
2023-05-08T20:39:31.817Z,70.10
2023-05-08T20:41:59.821Z,70.00
2023-05-08T20:44:29.737Z,69.90
2023-05-08T20:46:59.278Z,69.90
2023-05-08T20:49:27.280Z,70.00
2023-05-08T20:51:55.202Z,70.40
2023-05-08T20:54:26.158Z,70.70
2023-05-08T20:56:54.062Z,70.70
2023-05-08T20:59:23.177Z,70.70
2023-05-08T21:01:51.151Z,70.70
2023-05-08T21:04:20.515Z,71.00
2023-05-08T21:06:50.239Z,71.20
2023-05-08T21:09:19.298Z,71.10
2023-05-08T21:11:47.246Z,71.00
2023-05-08T21:14:15.752Z,70.90
2023-05-08T21:16:43.706Z,71.30
2023-05-08T21:19:13.878Z,71.40
2023-05-08T21:21:43.221Z,71.10
2023-05-08T21:24:11.101Z,71.10
2023-05-08T21:26:38.986Z,71.00
2023-05-08T21:29:06.906Z,71.20
2023-05-08T21:31:35.513Z,71.50
2023-05-08T21:34:03.666Z,71.40
2023-05-08T21:36:35.038Z,70.90
2023-05-08T21:39:04.401Z,70.40
2023-05-08T21:41:32.925Z,70.00
2023-05-08T21:44:00.968Z,69.70
2023-05-08T21:46:28.964Z,69.70
2023-05-08T21:48:56.925Z,69.80
2023-05-08T21:51:24.815Z,70.00
2023-05-08T21:53:52.679Z,70.30
2023-05-08T21:56:22.705Z,70.50
2023-05-08T21:58:51.174Z,70.60
2023-05-08T22:01:19.071Z,70.60
2023-05-08T22:03:47.202Z,70.70
2023-05-08T22:06:15.260Z,70.80
2023-05-08T22:08:43.140Z,71.10
2023-05-08T22:11:12.503Z,71.10
2023-05-08T22:13:41.772Z,71.00
2023-05-08T22:16:09.727Z,70.90
2023-05-08T22:18:37.885Z,71.10
2023-05-08T22:21:05.803Z,71.30
2023-05-08T22:23:34.494Z,71.30
2023-05-08T22:26:02.998Z,71.10
2023-05-08T22:28:30.983Z,71.10
2023-05-08T22:31:00.386Z,71.10
2023-05-08T22:33:32.157Z,71.40
2023-05-08T22:36:00.007Z,71.40
2023-05-08T22:38:27.909Z,71.20
2023-05-08T22:40:57.290Z,70.80
2023-05-08T22:43:25.243Z,70.30
2023-05-08T22:45:53.163Z,69.90
2023-05-08T22:48:22.419Z,69.80
2023-05-08T22:50:53.058Z,69.80
2023-05-08T22:53:21.323Z,69.90
2023-05-08T22:55:49.199Z,70.20
2023-05-08T22:58:17.331Z,70.50
2023-05-08T23:00:45.303Z,70.60
2023-05-08T23:03:13.886Z,70.60
2023-05-08T23:05:43.127Z,70.60
2023-05-08T23:08:11.021Z,70.70
2023-05-08T23:10:41.350Z,71.00
2023-05-08T23:13:09.312Z,70.90
2023-05-08T23:15:37.464Z,70.80
2023-05-08T23:18:05.563Z,70.80
2023-05-08T23:20:33.488Z,71.10
2023-05-08T23:23:02.716Z,71.20
2023-05-08T23:25:30.624Z,71.00
2023-05-08T23:27:58.502Z,70.60
2023-05-08T23:30:26.342Z,70.00
2023-05-08T23:32:55.992Z,69.70
2023-05-08T23:35:23.912Z,69.60
2023-05-08T23:37:51.809Z,69.60
2023-05-08T23:40:21.099Z,69.80
2023-05-08T23:42:48.951Z,70.00
2023-05-08T23:45:17.143Z,70.40
2023-05-08T23:47:47.753Z,70.40
2023-05-08T23:50:15.759Z,70.40
2023-05-08T23:52:43.654Z,70.40
2023-05-08T23:55:11.977Z,70.60
2023-05-08T23:57:41.566Z,70.70
